sensor_id;sensor_type;location;lat;lon;timestamp;pressure;altitude;pressure_sealevel;temperature;humidity
10700;BME280;5401;41.986;21.452;2023-03-25T00:00:21;98151.63;;;13.76;54.56
10700;BME280;5401;41.986;21.452;2023-03-25T00:02:50;98146.47;;;13.74;54.28
10700;BME280;5401;41.986;21.452;2023-03-25T00:05:20;98151.28;;;13.72;54.46
10700;BME280;5401;41.986;21.452;2023-03-25T00:07:50;98144.97;;;13.67;54.04
10700;BME280;5401;41.986;21.452;2023-03-25T00:10:17;98149.75;;;13.65;55.05
10700;BME280;5401;41.986;21.452;2023-03-25T00:12:45;98140.88;;;13.64;54.92
10700;BME280;5401;41.986;21.452;2023-03-25T00:15:12;98121.16;;;13.48;55.35
10700;BME280;5401;41.986;21.452;2023-03-25T00:17:43;98131.06;;;13.58;54.75
10700;BME280;5401;41.986;21.452;2023-03-25T00:20:11;98119.94;;;13.55;54.11
10700;BME280;5401;41.986;21.452;2023-03-25T00:22:39;98120.44;;;13.52;54.12
10700;BME280;5401;41.986;21.452;2023-03-25T00:25:10;98112.50;;;13.46;54.94
10700;BME280;5401;41.986;21.452;2023-03-25T00:27:38;98114.94;;;13.47;55.36
10700;BME280;5401;41.986;21.452;2023-03-25T00:30:07;98112.50;;;13.46;55.13
10700;BME280;5401;41.986;21.452;2023-03-25T00:32:35;98116.34;;;13.38;55.71
10700;BME280;5401;41.986;21.452;2023-03-25T00:35:06;98123.84;;;13.36;55.81
10700;BME280;5401;41.986;21.452;2023-03-25T00:37:34;98119.75;;;13.34;55.29
10700;BME280;5401;41.986;21.452;2023-03-25T00:40:02;98122.91;;;13.31;54.92
10700;BME280;5401;41.986;21.452;2023-03-25T00:42:30;98116.13;;;13.28;55.93
10700;BME280;5401;41.986;21.452;2023-03-25T00:44:59;98102.72;;;13.17;55.29
10700;BME280;5401;41.986;21.452;2023-03-25T00:47:27;98113.13;;;13.25;56.18
10700;BME280;5401;41.986;21.452;2023-03-25T00:49:54;98115.44;;;13.21;54.91
10700;BME280;5401;41.986;21.452;2023-03-25T00:52:23;98117.53;;;13.19;55.90
10700;BME280;5401;41.986;21.452;2023-03-25T00:54:51;98112.88;;;13.15;56.47
10700;BME280;5401;41.986;21.452;2023-03-25T00:57:18;98086.69;;;12.99;55.47
10700;BME280;5401;41.986;21.452;2023-03-25T00:59:47;98110.06;;;13.10;55.49
10700;BME280;5401;41.986;21.452;2023-03-25T01:02:15;98107.84;;;13.07;55.59
10700;BME280;5401;41.986;21.452;2023-03-25T01:04:43;98094.19;;;12.97;56.35
10700;BME280;5401;41.986;21.452;2023-03-25T01:07:11;98112.97;;;12.97;56.85
10700;BME280;5401;41.986;21.452;2023-03-25T01:09:43;98117.41;;;12.92;56.78
10700;BME280;5401;41.986;21.452;2023-03-25T01:12:12;98107.16;;;12.89;55.74
10700;BME280;5401;41.986;21.452;2023-03-25T01:14:40;98108.66;;;12.85;56.95
10700;BME280;5401;41.986;21.452;2023-03-25T01:17:08;98109.69;;;12.84;56.44
10700;BME280;5401;41.986;21.452;2023-03-25T01:19:36;98105.84;;;12.80;56.64
10700;BME280;5401;41.986;21.452;2023-03-25T01:22:04;98107.31;;;12.76;56.99
10700;BME280;5401;41.986;21.452;2023-03-25T01:24:32;98080.09;;;12.61;56.89
10700;BME280;5401;41.986;21.452;2023-03-25T01:27:01;98107.66;;;12.68;56.36
10700;BME280;5401;41.986;21.452;2023-03-25T01:29:29;98111.63;;;12.66;56.03
10700;BME280;5401;41.986;21.452;2023-03-25T01:31:57;98104.47;;;12.60;57.13
10700;BME280;5401;41.986;21.452;2023-03-25T01:34:24;98088.47;;;12.53;56.41
10700;BME280;5401;41.986;21.452;2023-03-25T01:36:52;98100.03;;;12.54;56.44
10700;BME280;5401;41.986;21.452;2023-03-25T01:39:20;98093.25;;;12.51;57.37
10700;BME280;5401;41.986;21.452;2023-03-25T01:41:49;98096.16;;;12.50;57.53
10700;BME280;5401;41.986;21.452;2023-03-25T01:47:26;98099.56;;;12.46;56.44
10700;BME280;5401;41.986;21.452;2023-03-25T01:49:54;98095.00;;;12.46;57.41
10700;BME280;5401;41.986;21.452;2023-03-25T01:52:23;98094.41;;;12.44;56.74
10700;BME280;5401;41.986;21.452;2023-03-25T01:54:54;98094.19;;;12.34;57.73
10700;BME280;5401;41.986;21.452;2023-03-25T01:57:23;98096.03;;;12.34;57.93
10700;BME280;5401;41.986;21.452;2023-03-25T01:59:52;98094.41;;;12.33;57.95
10700;BME280;5401;41.986;21.452;2023-03-25T02:02:21;98095.44;;;12.32;57.50
10700;BME280;5401;41.986;21.452;2023-03-25T02:04:55;98089.72;;;12.28;57.51
10700;BME280;5401;41.986;21.452;2023-03-25T02:07:28;98085.16;;;12.29;58.07
10700;BME280;5401;41.986;21.452;2023-03-25T02:09:58;98090.16;;;12.25;57.78
10700;BME280;5401;41.986;21.452;2023-03-25T02:12:27;98091.44;;;12.23;57.53
10700;BME280;5401;41.986;21.452;2023-03-25T02:14:55;98054.63;;;12.01;58.16
10700;BME280;5401;41.986;21.452;2023-03-25T02:17:28;98083.50;;;12.16;57.84
10700;BME280;5401;41.986;21.452;2023-03-25T02:23:19;98083.00;;;12.08;58.01
10700;BME280;5401;41.986;21.452;2023-03-25T02:28:48;98090.09;;;12.03;57.86
10700;BME280;5401;41.986;21.452;2023-03-25T02:31:36;98083.31;;;12.00;57.88
10700;BME280;5401;41.986;21.452;2023-03-25T02:34:32;98088.09;;;11.98;57.81
10700;BME280;5401;41.986;21.452;2023-03-25T02:37:30;98095.78;;;11.95;58.79
10700;BME280;5401;41.986;21.452;2023-03-25T02:40:05;98092.50;;;11.93;58.65
10700;BME280;5401;41.986;21.452;2023-03-25T02:42:39;98089.44;;;11.89;58.03
10700;BME280;5401;41.986;21.452;2023-03-25T02:45:13;98090.13;;;11.85;58.32
10700;BME280;5401;41.986;21.452;2023-03-25T02:47:46;98085.66;;;11.79;58.46
10700;BME280;5401;41.986;21.452;2023-03-25T02:50:20;98091.03;;;11.79;58.86
10700;BME280;5401;41.986;21.452;2023-03-25T02:52:52;98095.00;;;11.76;58.41
10700;BME280;5401;41.986;21.452;2023-03-25T02:55:23;98087.41;;;11.74;59.14
10700;BME280;5401;41.986;21.452;2023-03-25T02:57:54;98080.88;;;11.70;59.05
10700;BME280;5401;41.986;21.452;2023-03-25T03:00:26;98085.84;;;11.66;58.91
10700;BME280;5401;41.986;21.452;2023-03-25T03:02:56;98084.44;;;11.64;59.12
10700;BME280;5401;41.986;21.452;2023-03-25T03:05:26;98082.19;;;11.61;59.04
10700;BME280;5401;41.986;21.452;2023-03-25T03:08:05;98081.00;;;11.57;59.46
10700;BME280;5401;41.986;21.452;2023-03-25T03:10:41;98078.88;;;11.47;59.18
10700;BME280;5401;41.986;21.452;2023-03-25T03:13:18;98080.38;;;11.43;59.84
10700;BME280;5401;41.986;21.452;2023-03-25T03:15:55;98074.16;;;11.43;59.49
10700;BME280;5401;41.986;21.452;2023-03-25T03:18:36;98077.50;;;11.38;59.61
10700;BME280;5401;41.986;21.452;2023-03-25T03:21:12;98083.06;;;11.37;59.85
10700;BME280;5401;41.986;21.452;2023-03-25T03:23:50;98084.13;;;11.36;59.61
10700;BME280;5401;41.986;21.452;2023-03-25T03:26:28;98074.28;;;11.30;60.18
10700;BME280;5401;41.986;21.452;2023-03-25T03:29:07;98073.31;;;11.25;60.21
10700;BME280;5401;41.986;21.452;2023-03-25T03:31:39;98080.94;;;11.28;60.22
10700;BME280;5401;41.986;21.452;2023-03-25T03:34:10;98085.47;;;11.27;60.29
10700;BME280;5401;41.986;21.452;2023-03-25T03:36:44;98086.28;;;11.28;60.59
10700;BME280;5401;41.986;21.452;2023-03-25T03:39:17;98078.47;;;11.26;60.55
10700;BME280;5401;41.986;21.452;2023-03-25T03:41:50;98082.19;;;11.25;59.99
10700;BME280;5401;41.986;21.452;2023-03-25T03:44:21;98080.53;;;11.24;60.20
10700;BME280;5401;41.986;21.452;2023-03-25T03:46:54;98076.47;;;11.22;60.38
10700;BME280;5401;41.986;21.452;2023-03-25T03:49:27;98081.81;;;11.22;60.17
10700;BME280;5401;41.986;21.452;2023-03-25T03:51:57;98076.88;;;11.19;60.73
10700;BME280;5401;41.986;21.452;2023-03-25T03:54:30;98076.06;;;11.18;60.64
10700;BME280;5401;41.986;21.452;2023-03-25T03:57:02;98071.84;;;11.11;60.67
10700;BME280;5401;41.986;21.452;2023-03-25T03:59:39;98083.59;;;11.10;60.73
10700;BME280;5401;41.986;21.452;2023-03-25T04:02:12;98094.53;;;11.08;60.59
10700;BME280;5401;41.986;21.452;2023-03-25T04:04:43;98101.75;;;11.08;60.91
10700;BME280;5401;41.986;21.452;2023-03-25T04:07:14;98094.97;;;11.05;60.99
10700;BME280;5401;41.986;21.452;2023-03-25T04:09:50;98110.25;;;11.05;61.05
10700;BME280;5401;41.986;21.452;2023-03-25T04:12:24;98103.81;;;11.06;61.03
10700;BME280;5401;41.986;21.452;2023-03-25T04:14:53;98106.72;;;11.04;61.05
10700;BME280;5401;41.986;21.452;2023-03-25T04:17:21;98106.97;;;11.03;61.22
10700;BME280;5401;41.986;21.452;2023-03-25T04:19:49;98108.78;;;11.02;61.30
10700;BME280;5401;41.986;21.452;2023-03-25T04:22:19;98103.69;;;11.01;61.62
10700;BME280;5401;41.986;21.452;2023-03-25T04:24:47;98104.72;;;11.00;61.44
10700;BME280;5401;41.986;21.452;2023-03-25T04:27:17;98104.50;;;11.02;61.58
10700;BME280;5401;41.986;21.452;2023-03-25T04:29:49;98107.38;;;11.00;61.62
10700;BME280;5401;41.986;21.452;2023-03-25T04:32:18;98103.50;;;10.96;61.38
10700;BME280;5401;41.986;21.452;2023-03-25T04:34:45;98110.28;;;10.99;62.07
10700;BME280;5401;41.986;21.452;2023-03-25T04:37:13;98116.25;;;11.01;61.71
10700;BME280;5401;41.986;21.452;2023-03-25T04:39:40;98128.75;;;11.06;61.78
10700;BME280;5401;41.986;21.452;2023-03-25T04:42:08;98125.06;;;11.25;61.77
10700;BME280;5401;41.986;21.452;2023-03-25T04:44:38;98121.31;;;11.68;61.36
10700;BME280;5401;41.986;21.452;2023-03-25T04:47:11;98125.38;;;12.17;59.86
10700;BME280;5401;41.986;21.452;2023-03-25T04:49:41;98128.69;;;12.71;60.22
10700;BME280;5401;41.986;21.452;2023-03-25T04:52:10;98116.59;;;13.14;58.29
10700;BME280;5401;41.986;21.452;2023-03-25T04:54:38;98114.47;;;13.50;58.46
10700;BME280;5401;41.986;21.452;2023-03-25T04:57:05;98122.06;;;13.53;58.46
10700;BME280;5401;41.986;21.452;2023-03-25T04:59:34;98124.97;;;13.63;57.16
10700;BME280;5401;41.986;21.452;2023-03-25T05:02:02;98121.69;;;13.72;56.88
10700;BME280;5401;41.986;21.452;2023-03-25T05:04:32;98115.44;;;13.83;56.59
10700;BME280;5401;41.986;21.452;2023-03-25T05:07:00;98119.88;;;14.28;56.84
10700;BME280;5401;41.986;21.452;2023-03-25T05:09:27;98123.13;;;14.74;55.72
10700;BME280;5401;41.986;21.452;2023-03-25T05:11:55;98124.22;;;14.89;55.33
10700;BME280;5401;41.986;21.452;2023-03-25T05:14:22;98127.38;;;14.86;55.56
10700;BME280;5401;41.986;21.452;2023-03-25T05:16:50;98114.16;;;14.85;55.39
10700;BME280;5401;41.986;21.452;2023-03-25T05:19:17;98121.28;;;14.91;55.49
10700;BME280;5401;41.986;21.452;2023-03-25T05:21:46;98134.75;;;15.39;54.77
10700;BME280;5401;41.986;21.452;2023-03-25T05:24:14;98131.69;;;16.32;53.91
10700;BME280;5401;41.986;21.452;2023-03-25T05:26:43;98127.44;;;16.98;52.72
10700;BME280;5401;41.986;21.452;2023-03-25T05:29:13;98118.34;;;17.86;51.75
10700;BME280;5401;41.986;21.452;2023-03-25T05:31:42;98122.16;;;18.80;49.96
10700;BME280;5401;41.986;21.452;2023-03-25T05:34:10;98133.84;;;19.55;49.00
10700;BME280;5401;41.986;21.452;2023-03-25T05:36:39;98122.94;;;19.89;48.12
10700;BME280;5401;41.986;21.452;2023-03-25T05:39:08;98126.31;;;20.34;47.05
10700;BME280;5401;41.986;21.452;2023-03-25T05:41:36;98119.72;;;20.93;46.34
10700;BME280;5401;41.986;21.452;2023-03-25T05:44:05;98123.47;;;21.63;45.89
10700;BME280;5401;41.986;21.452;2023-03-25T05:46:33;98125.41;;;22.09;45.33
10700;BME280;5401;41.986;21.452;2023-03-25T05:49:01;98121.56;;;22.15;44.79
10700;BME280;5401;41.986;21.452;2023-03-25T05:51:29;98128.97;;;22.32;44.49
10700;BME280;5401;41.986;21.452;2023-03-25T05:53:58;98124.84;;;21.88;45.24
10700;BME280;5401;41.986;21.452;2023-03-25T05:56:28;98134.31;;;21.40;45.30
10700;BME280;5401;41.986;21.452;2023-03-25T05:58:55;98122.50;;;20.83;46.04
10700;BME280;5401;41.986;21.452;2023-03-25T06:01:23;98130.41;;;20.22;46.45
10700;BME280;5401;41.986;21.452;2023-03-25T06:03:52;98128.34;;;20.04;47.35
10700;BME280;5401;41.986;21.452;2023-03-25T06:06:20;98129.38;;;20.13;47.74
10700;BME280;5401;41.986;21.452;2023-03-25T06:08:50;98118.84;;;20.49;47.32
10700;BME280;5401;41.986;21.452;2023-03-25T06:11:19;98114.88;;;20.80;46.35
10700;BME280;5401;41.986;21.452;2023-03-25T06:13:48;98115.06;;;20.93;46.58
10700;BME280;5401;41.986;21.452;2023-03-25T06:16:17;98118.13;;;21.20;46.29
10700;BME280;5401;41.986;21.452;2023-03-25T06:18:45;98112.38;;;21.54;46.00
10700;BME280;5401;41.986;21.452;2023-03-25T06:21:17;98109.28;;;21.89;45.01
10700;BME280;5401;41.986;21.452;2023-03-25T06:23:45;98113.69;;;22.08;44.79
10700;BME280;5401;41.986;21.452;2023-03-25T06:26:14;98100.47;;;21.74;45.21
10700;BME280;5401;41.986;21.452;2023-03-25T06:28:42;98119.63;;;21.92;44.97
10700;BME280;5401;41.986;21.452;2023-03-25T06:31:13;98116.19;;;22.05;44.32
10700;BME280;5401;41.986;21.452;2023-03-25T06:33:41;98121.84;;;21.85;45.02
10700;BME280;5401;41.986;21.452;2023-03-25T06:36:10;98111.78;;;21.85;45.04
10700;BME280;5401;41.986;21.452;2023-03-25T06:38:38;98113.75;;;21.80;44.51
10700;BME280;5401;41.986;21.452;2023-03-25T06:41:06;98120.28;;;21.79;44.48
10700;BME280;5401;41.986;21.452;2023-03-25T06:43:33;98116.66;;;21.65;44.51
10700;BME280;5401;41.986;21.452;2023-03-25T06:46:02;98112.97;;;21.51;44.68
10700;BME280;5401;41.986;21.452;2023-03-25T06:48:31;98116.31;;;21.44;45.29
10700;BME280;5401;41.986;21.452;2023-03-25T06:50:58;98108.47;;;21.32;45.06
10700;BME280;5401;41.986;21.452;2023-03-25T06:53:26;98106.88;;;21.26;44.58
10700;BME280;5401;41.986;21.452;2023-03-25T06:55:55;98110.72;;;20.92;45.50
10700;BME280;5401;41.986;21.452;2023-03-25T06:58:23;98121.56;;;20.97;45.57
10700;BME280;5401;41.986;21.452;2023-03-25T07:00:59;98125.38;;;20.96;45.33
10700;BME280;5401;41.986;21.452;2023-03-25T07:03:32;98113.75;;;20.91;45.38
10700;BME280;5401;41.986;21.452;2023-03-25T07:06:01;98130.75;;;21.06;45.22
10700;BME280;5401;41.986;21.452;2023-03-25T07:08:28;98122.88;;;20.67;45.69
10700;BME280;5401;41.986;21.452;2023-03-25T07:10:59;98109.13;;;20.86;45.10
10700;BME280;5401;41.986;21.452;2023-03-25T07:13:27;98107.22;;;21.20;45.01
10700;BME280;5401;41.986;21.452;2023-03-25T07:15:56;98111.81;;;21.24;45.17
10700;BME280;5401;41.986;21.452;2023-03-25T07:18:23;98110.81;;;21.48;45.00
10700;BME280;5401;41.986;21.452;2023-03-25T07:20:54;98104.97;;;21.27;44.66
10700;BME280;5401;41.986;21.452;2023-03-25T07:23:21;98107.69;;;21.27;45.28
10700;BME280;5401;41.986;21.452;2023-03-25T07:25:49;98106.88;;;21.31;44.81
10700;BME280;5401;41.986;21.452;2023-03-25T07:28:16;98102.25;;;21.27;45.14
10700;BME280;5401;41.986;21.452;2023-03-25T07:30:44;98097.84;;;21.31;45.20
10700;BME280;5401;41.986;21.452;2023-03-25T07:33:11;98101.03;;;21.48;45.30
10700;BME280;5401;41.986;21.452;2023-03-25T07:35:39;98094.13;;;21.55;44.52
10700;BME280;5401;41.986;21.452;2023-03-25T07:38:08;98103.97;;;21.51;44.77
10700;BME280;5401;41.986;21.452;2023-03-25T07:40:36;98099.50;;;21.32;45.34
10700;BME280;5401;41.986;21.452;2023-03-25T07:43:04;98095.28;;;21.16;45.20
10700;BME280;5401;41.986;21.452;2023-03-25T07:45:31;98092.88;;;21.10;45.09
10700;BME280;5401;41.986;21.452;2023-03-25T07:47:59;98090.84;;;20.97;45.35
10700;BME280;5401;41.986;21.452;2023-03-25T07:50:27;98069.94;;;20.87;45.56
10700;BME280;5401;41.986;21.452;2023-03-25T07:52:54;98096.66;;;21.13;45.77
10700;BME280;5401;41.986;21.452;2023-03-25T07:55:23;98102.16;;;21.42;45.21
10700;BME280;5401;41.986;21.452;2023-03-25T07:57:50;98093.53;;;21.86;44.39
10700;BME280;5401;41.986;21.452;2023-03-25T08:00:19;98089.41;;;21.88;44.37
10700;BME280;5401;41.986;21.452;2023-03-25T08:02:46;98097.75;;;21.97;44.39
10700;BME280;5401;41.986;21.452;2023-03-25T08:05:14;98084.50;;;22.09;44.23
10700;BME280;5401;41.986;21.452;2023-03-25T08:07:46;98083.53;;;22.23;43.64
10700;BME280;5401;41.986;21.452;2023-03-25T08:10:14;98093.03;;;22.67;43.37
10700;BME280;5401;41.986;21.452;2023-03-25T08:12:43;98095.63;;;22.95;42.80
10700;BME280;5401;41.986;21.452;2023-03-25T08:15:12;98092.75;;;22.87;42.77
10700;BME280;5401;41.986;21.452;2023-03-25T08:17:42;98088.09;;;22.87;43.00
10700;BME280;5401;41.986;21.452;2023-03-25T08:20:10;98088.34;;;22.91;43.22
10700;BME280;5401;41.986;21.452;2023-03-25T08:22:38;98089.72;;;22.88;43.18
10700;BME280;5401;41.986;21.452;2023-03-25T08:25:06;98075.88;;;22.80;43.04
10700;BME280;5401;41.986;21.452;2023-03-25T08:27:34;98074.72;;;22.67;43.60
10700;BME280;5401;41.986;21.452;2023-03-25T08:30:03;98068.81;;;22.42;44.01
10700;BME280;5401;41.986;21.452;2023-03-25T08:32:31;98067.78;;;22.38;43.68
10700;BME280;5401;41.986;21.452;2023-03-25T08:35:01;98063.00;;;22.49;43.52
10700;BME280;5401;41.986;21.452;2023-03-25T08:37:30;98058.19;;;22.59;44.11
10700;BME280;5401;41.986;21.452;2023-03-25T08:40:00;98051.84;;;22.27;44.04
10700;BME280;5401;41.986;21.452;2023-03-25T08:42:31;98050.06;;;21.71;44.14
10700;BME280;5401;41.986;21.452;2023-03-25T08:44:59;98030.94;;;21.53;44.42
10700;BME280;5401;41.986;21.452;2023-03-25T08:47:28;98056.28;;;21.77;44.75
10700;BME280;5401;41.986;21.452;2023-03-25T08:49:55;98041.38;;;21.69;44.33
10700;BME280;5401;41.986;21.452;2023-03-25T08:52:23;98041.69;;;21.68;44.50
10700;BME280;5401;41.986;21.452;2023-03-25T08:54:51;98047.47;;;21.61;45.19
10700;BME280;5401;41.986;21.452;2023-03-25T08:57:18;98027.41;;;21.76;44.52
10700;BME280;5401;41.986;21.452;2023-03-25T08:59:46;98036.47;;;21.89;44.65
10700;BME280;5401;41.986;21.452;2023-03-25T09:02:13;98046.19;;;21.77;44.53
10700;BME280;5401;41.986;21.452;2023-03-25T09:04:42;98032.66;;;21.90;44.36
10700;BME280;5401;41.986;21.452;2023-03-25T09:07:09;98029.88;;;21.95;44.51
10700;BME280;5401;41.986;21.452;2023-03-25T09:09:37;98020.59;;;21.96;44.07
10700;BME280;5401;41.986;21.452;2023-03-25T09:12:05;98003.44;;;21.96;44.08
10700;BME280;5401;41.986;21.452;2023-03-25T09:14:33;98024.19;;;22.15;43.87
10700;BME280;5401;41.986;21.452;2023-03-25T09:17:01;97995.31;;;22.09;43.75
10700;BME280;5401;41.986;21.452;2023-03-25T09:19:28;98004.38;;;21.86;44.67
10700;BME280;5401;41.986;21.452;2023-03-25T09:21:57;97997.16;;;21.95;44.01
10700;BME280;5401;41.986;21.452;2023-03-25T09:24:24;97998.72;;;22.01;44.58
10700;BME280;5401;41.986;21.452;2023-03-25T09:26:52;98003.84;;;21.84;44.18
10700;BME280;5401;41.986;21.452;2023-03-25T09:29:19;98008.25;;;21.81;44.16
10700;BME280;5401;41.986;21.452;2023-03-25T09:31:47;98016.31;;;21.90;44.18
10700;BME280;5401;41.986;21.452;2023-03-25T09:34:14;98022.97;;;22.03;43.80
10700;BME280;5401;41.986;21.452;2023-03-25T09:36:41;98016.91;;;21.64;44.35
10700;BME280;5401;41.986;21.452;2023-03-25T09:39:12;98001.81;;;21.25;44.93
10700;BME280;5401;41.986;21.452;2023-03-25T09:41:49;97995.41;;;20.83;45.02
10700;BME280;5401;41.986;21.452;2023-03-25T09:44:26;97995.41;;;20.83;45.16
10700;BME280;5401;41.986;21.452;2023-03-25T09:46:55;97982.59;;;20.84;44.99
10700;BME280;5401;41.986;21.452;2023-03-25T09:49:33;97992.06;;;20.91;44.98
10700;BME280;5401;41.986;21.452;2023-03-25T09:52:04;97990.28;;;20.77;44.87
10700;BME280;5401;41.986;21.452;2023-03-25T09:54:36;97982.56;;;20.89;45.03
10700;BME280;5401;41.986;21.452;2023-03-25T09:57:08;97980.00;;;21.25;44.40
10700;BME280;5401;41.986;21.452;2023-03-25T09:59:42;97980.72;;;21.59;44.43
10700;BME280;5401;41.986;21.452;2023-03-25T10:02:21;97973.25;;;21.46;44.53
10700;BME280;5401;41.986;21.452;2023-03-25T10:04:58;97971.38;;;21.65;44.21
10700;BME280;5401;41.986;21.452;2023-03-25T10:07:43;97965.56;;;21.71;44.10
10700;BME280;5401;41.986;21.452;2023-03-25T10:10:25;97960.88;;;21.77;44.24
10700;BME280;5401;41.986;21.452;2023-03-25T10:13:02;97961.38;;;21.60;44.15
10700;BME280;5401;41.986;21.452;2023-03-25T10:15:38;97958.28;;;21.67;43.76
10700;BME280;5401;41.986;21.452;2023-03-25T10:18:22;97946.88;;;21.83;43.63
10700;BME280;5401;41.986;21.452;2023-03-25T10:20:58;97944.72;;;22.21;43.58
10700;BME280;5401;41.986;21.452;2023-03-25T10:23:33;97942.06;;;22.35;43.25
10700;BME280;5401;41.986;21.452;2023-03-25T10:26:09;97938.53;;;22.66;42.44
10700;BME280;5401;41.986;21.452;2023-03-25T10:28:43;97939.66;;;22.65;42.94
10700;BME280;5401;41.986;21.452;2023-03-25T10:31:16;97930.75;;;22.59;42.39
10700;BME280;5401;41.986;21.452;2023-03-25T10:33:48;97922.56;;;22.28;42.95
10700;BME280;5401;41.986;21.452;2023-03-25T10:36:18;97928.19;;;22.31;42.57
10700;BME280;5401;41.986;21.452;2023-03-25T10:38:50;97923.84;;;22.49;42.89
10700;BME280;5401;41.986;21.452;2023-03-25T10:41:25;97913.84;;;22.57;42.33
10700;BME280;5401;41.986;21.452;2023-03-25T10:43:53;97918.88;;;22.82;42.27
10700;BME280;5401;41.986;21.452;2023-03-25T10:46:26;97911.75;;;22.99;41.72
10700;BME280;5401;41.986;21.452;2023-03-25T10:48:55;97904.81;;;23.07;41.61
10700;BME280;5401;41.986;21.452;2023-03-25T10:51:27;97905.91;;;23.19;41.51
10700;BME280;5401;41.986;21.452;2023-03-25T10:53:56;97897.81;;;23.01;41.85
10700;BME280;5401;41.986;21.452;2023-03-25T10:56:28;97897.28;;;22.86;41.58
10700;BME280;5401;41.986;21.452;2023-03-25T10:58:59;97895.94;;;22.83;41.89
10700;BME280;5401;41.986;21.452;2023-03-25T11:01:34;97894.41;;;22.77;41.81
10700;BME280;5401;41.986;21.452;2023-03-25T11:04:05;97894.25;;;22.87;42.14
10700;BME280;5401;41.986;21.452;2023-03-25T11:06:36;97894.06;;;22.97;41.77
10700;BME280;5401;41.986;21.452;2023-03-25T11:09:15;97873.94;;;22.93;41.57
10700;BME280;5401;41.986;21.452;2023-03-25T11:11:45;97881.25;;;23.11;41.76
10700;BME280;5401;41.986;21.452;2023-03-25T11:14:14;97875.25;;;23.22;41.35
10700;BME280;5401;41.986;21.452;2023-03-25T11:16:43;97875.66;;;23.29;41.52
10700;BME280;5401;41.986;21.452;2023-03-25T11:19:19;97865.34;;;23.26;41.31
10700;BME280;5401;41.986;21.452;2023-03-25T11:21:47;97852.91;;;23.20;41.41
10700;BME280;5401;41.986;21.452;2023-03-25T11:24:30;97875.06;;;23.45;41.20
10700;BME280;5401;41.986;21.452;2023-03-25T11:27:00;97873.44;;;23.58;41.36
10700;BME280;5401;41.986;21.452;2023-03-25T11:29:28;97864.13;;;23.45;41.13
10700;BME280;5401;41.986;21.452;2023-03-25T11:32:05;97869.38;;;23.55;41.42
10700;BME280;5401;41.986;21.452;2023-03-25T11:34:34;97873.03;;;23.64;41.21
10700;BME280;5401;41.986;21.452;2023-03-25T11:37:15;97864.81;;;23.77;40.99
10700;BME280;5401;41.986;21.452;2023-03-25T11:39:47;97857.28;;;23.83;40.82
10700;BME280;5401;41.986;21.452;2023-03-25T11:42:27;97852.44;;;23.80;40.76
10700;BME280;5401;41.986;21.452;2023-03-25T11:44:59;97847.50;;;23.68;40.90
10700;BME280;5401;41.986;21.452;2023-03-25T11:47:30;97833.41;;;23.75;40.83
10700;BME280;5401;41.986;21.452;2023-03-25T11:49:59;97827.81;;;23.80;40.91
10700;BME280;5401;41.986;21.452;2023-03-25T11:52:33;97819.63;;;23.80;41.30
10700;BME280;5401;41.986;21.452;2023-03-25T11:55:03;97795.19;;;23.62;40.72
10700;BME280;5401;41.986;21.452;2023-03-25T11:57:37;97791.50;;;23.53;40.77
10700;BME280;5401;41.986;21.452;2023-03-25T12:00:19;97778.19;;;23.38;40.89
10700;BME280;5401;41.986;21.452;2023-03-25T12:02:47;97772.78;;;23.11;41.15
10700;BME280;5401;41.986;21.452;2023-03-25T12:05:24;97767.25;;;22.90;41.66
10700;BME280;5401;41.986;21.452;2023-03-25T12:08:02;97759.25;;;22.66;41.77
10700;BME280;5401;41.986;21.452;2023-03-25T12:10:39;97748.91;;;22.37;41.47
10700;BME280;5401;41.986;21.452;2023-03-25T12:13:20;97739.31;;;22.26;42.19
10700;BME280;5401;41.986;21.452;2023-03-25T12:15:55;97749.13;;;22.09;42.08
10700;BME280;5401;41.986;21.452;2023-03-25T12:18:41;97754.53;;;21.95;42.17
10700;BME280;5401;41.986;21.452;2023-03-25T12:21:20;97754.97;;;22.02;42.28
10700;BME280;5401;41.986;21.452;2023-03-25T12:24:06;97751.41;;;22.20;42.06
10700;BME280;5401;41.986;21.452;2023-03-25T12:26:41;97727.06;;;22.37;41.55
10700;BME280;5401;41.986;21.452;2023-03-25T12:29:25;97754.78;;;22.70;41.32
10700;BME280;5401;41.986;21.452;2023-03-25T12:32:08;97745.38;;;22.76;41.36
10700;BME280;5401;41.986;21.452;2023-03-25T12:34:50;97745.47;;;22.85;40.42
10700;BME280;5401;41.986;21.452;2023-03-25T12:37:27;97735.16;;;22.82;40.69
10700;BME280;5401;41.986;21.452;2023-03-25T12:40:23;97727.09;;;22.90;40.35
10700;BME280;5401;41.986;21.452;2023-03-25T12:43:03;97716.78;;;22.60;40.27
10700;BME280;5401;41.986;21.452;2023-03-25T12:45:43;97714.34;;;22.59;40.02
10700;BME280;5401;41.986;21.452;2023-03-25T12:48:27;97712.44;;;22.59;40.37
10700;BME280;5401;41.986;21.452;2023-03-25T12:51:05;97703.63;;;22.76;40.37
10700;BME280;5401;41.986;21.452;2023-03-25T12:53:46;97706.97;;;22.86;39.55
10700;BME280;5401;41.986;21.452;2023-03-25T12:56:28;97700.97;;;23.11;39.16
10700;BME280;5401;41.986;21.452;2023-03-25T12:59:18;97699.69;;;23.30;39.23
10700;BME280;5401;41.986;21.452;2023-03-25T13:02:02;97687.47;;;23.27;39.08
10700;BME280;5401;41.986;21.452;2023-03-25T13:04:52;97686.72;;;23.35;39.13
10700;BME280;5401;41.986;21.452;2023-03-25T13:07:25;97690.06;;;23.32;39.07
10700;BME280;5401;41.986;21.452;2023-03-25T13:10:02;97681.31;;;23.22;38.58
10700;BME280;5401;41.986;21.452;2023-03-25T13:12:34;97672.66;;;23.07;38.59
10700;BME280;5401;41.986;21.452;2023-03-25T13:15:06;97671.97;;;23.01;38.82
10700;BME280;5401;41.986;21.452;2023-03-25T13:17:44;97671.47;;;22.99;38.46
10700;BME280;5401;41.986;21.452;2023-03-25T13:20:14;97670.03;;;23.02;38.27
10700;BME280;5401;41.986;21.452;2023-03-25T13:22:45;97663.16;;;23.04;38.11
10700;BME280;5401;41.986;21.452;2023-03-25T13:25:21;97655.44;;;23.06;38.21
10700;BME280;5401;41.986;21.452;2023-03-25T13:27:51;97644.47;;;22.98;37.99
10700;BME280;5401;41.986;21.452;2023-03-25T13:30:28;97650.56;;;22.95;38.22